sensor_id;sensor_type;location;lat;lon;timestamp;pressure;altitude;pressure_sealevel;temperature
84354;BMP280;74538;43.522;1.516;2024-01-15T00:01:44;99588.53;;;14.79
84354;BMP280;74538;43.522;1.516;2024-01-15T00:04:10;99577.13;;;14.78
84354;BMP280;74538;43.522;1.516;2024-01-15T00:06:35;99571.38;;;14.80
84354;BMP280;74538;43.522;1.516;2024-01-15T00:09:01;99567.63;;;14.77
84354;BMP280;74538;43.522;1.516;2024-01-15T00:11:27;99569.13;;;14.78
84354;BMP280;74538;43.522;1.516;2024-01-15T00:13:53;99557.72;;;14.78
84354;BMP280;74538;43.522;1.516;2024-01-15T00:16:18;99563.06;;;14.78
84354;BMP280;74538;43.522;1.516;2024-01-15T00:18:43;99550.47;;;14.78
84354;BMP280;74538;43.522;1.516;2024-01-15T00:21:09;99539.06;;;14.78
84354;BMP280;74538;43.522;1.516;2024-01-15T00:23:35;99536.38;;;14.78
84354;BMP280;74538;43.522;1.516;2024-01-15T00:26:00;99536.38;;;14.78
84354;BMP280;74538;43.522;1.516;2024-01-15T00:28:26;99536.38;;;14.78
84354;BMP280;74538;43.522;1.516;2024-01-15T00:30:51;99540.97;;;14.77
84354;BMP280;74538;43.522;1.516;2024-01-15T00:33:16;99538.31;;;14.77
84354;BMP280;74538;43.522;1.516;2024-01-15T00:35:42;99539.47;;;14.76
84354;BMP280;74538;43.522;1.516;2024-01-15T00:38:07;99533.41;;;14.76
84354;BMP280;74538;43.522;1.516;2024-01-15T00:40:33;99537.22;;;14.75
84354;BMP280;74538;43.522;1.516;2024-01-15T00:42:58;99526.56;;;14.75
84354;BMP280;74538;43.522;1.516;2024-01-15T00:45:24;99523.91;;;14.75
84354;BMP280;74538;43.522;1.516;2024-01-15T00:47:49;99539.91;;;14.75
84354;BMP280;74538;43.522;1.516;2024-01-15T00:50:14;99525.81;;;14.74
84354;BMP280;74538;43.522;1.516;2024-01-15T00:52:40;99525.06;;;14.73
84354;BMP280;74538;43.522;1.516;2024-01-15T00:55:06;99530.41;;;14.73
84354;BMP280;74538;43.522;1.516;2024-01-15T00:57:31;99535.72;;;14.73
84354;BMP280;74538;43.522;1.516;2024-01-15T00:59:58;99532.31;;;14.73
84354;BMP280;74538;43.522;1.516;2024-01-15T01:02:23;99534.25;;;14.73
84354;BMP280;74538;43.522;1.516;2024-01-15T01:04:49;99532.78;;;14.71
84354;BMP280;74538;43.522;1.516;2024-01-15T01:07:14;99540.75;;;14.71
84354;BMP280;74538;43.522;1.516;2024-01-15T01:09:39;99528.94;;;14.73
84354;BMP280;74538;43.522;1.516;2024-01-15T01:12:05;99531.59;;;14.73
84354;BMP280;74538;43.522;1.516;2024-01-15T01:14:31;99529.34;;;14.71
84354;BMP280;74538;43.522;1.516;2024-01-15T01:16:57;99525.53;;;14.72
84354;BMP280;74538;43.522;1.516;2024-01-15T01:19:22;99516.03;;;14.71
84354;BMP280;74538;43.522;1.516;2024-01-15T01:21:48;99513.34;;;14.71
84354;BMP280;74538;43.522;1.516;2024-01-15T01:24:13;99507.25;;;14.70
84354;BMP280;74538;43.522;1.516;2024-01-15T01:26:38;99511.84;;;14.70
84354;BMP280;74538;43.522;1.516;2024-01-15T01:29:04;99503.09;;;14.69
84354;BMP280;74538;43.522;1.516;2024-01-15T01:31:29;99497.75;;;14.69
84354;BMP280;74538;43.522;1.516;2024-01-15T01:33:55;99502.34;;;14.69
84354;BMP280;74538;43.522;1.516;2024-01-15T01:36:20;99496.25;;;14.68
84354;BMP280;74538;43.522;1.516;2024-01-15T01:38:45;99496.25;;;14.68
84354;BMP280;74538;43.522;1.516;2024-01-15T01:41:11;99494.75;;;14.67
84354;BMP280;74538;43.522;1.516;2024-01-15T01:43:36;99484.09;;;14.67
84354;BMP280;74538;43.522;1.516;2024-01-15T01:46:02;99484.09;;;14.67
84354;BMP280;74538;43.522;1.516;2024-01-15T01:48:29;99478.78;;;14.67
84354;BMP280;74538;43.522;1.516;2024-01-15T01:50:57;99482.59;;;14.66
84354;BMP280;74538;43.522;1.516;2024-01-15T01:53:25;99477.28;;;14.66
84354;BMP280;74538;43.522;1.516;2024-01-15T01:55:51;99470.47;;;14.65
84354;BMP280;74538;43.522;1.516;2024-01-15T01:58:18;99473.44;;;14.67
84354;BMP280;74538;43.522;1.516;2024-01-15T02:00:43;99475.81;;;14.65
84354;BMP280;74538;43.522;1.516;2024-01-15T02:03:09;99471.94;;;14.66
84354;BMP280;74538;43.522;1.516;2024-01-15T02:05:35;99465.91;;;14.66
84354;BMP280;74538;43.522;1.516;2024-01-15T02:08:01;99473.13;;;14.65
84354;BMP280;74538;43.522;1.516;2024-01-15T02:10:27;99479.22;;;14.66
84354;BMP280;74538;43.522;1.516;2024-01-15T02:12:52;99474.31;;;14.64
84354;BMP280;74538;43.522;1.516;2024-01-15T02:15:18;99475.06;;;14.65
84354;BMP280;74538;43.522;1.516;2024-01-15T02:20:25;99494.09;;;14.63
84354;BMP280;74538;43.522;1.516;2024-01-15T02:22:50;99492.22;;;14.64
84354;BMP280;74538;43.522;1.516;2024-01-15T02:25:16;99498.69;;;14.63
84354;BMP280;74538;43.522;1.516;2024-01-15T02:27:42;99497.94;;;14.62
84354;BMP280;74538;43.522;1.516;2024-01-15T02:30:11;99492.63;;;14.62
84354;BMP280;74538;43.522;1.516;2024-01-15T02:32:36;99487.28;;;14.62
84354;BMP280;74538;43.522;1.516;2024-01-15T02:35:02;99475.88;;;14.62
84354;BMP280;74538;43.522;1.516;2024-01-15T02:37:27;99473.66;;;14.60
84354;BMP280;74538;43.522;1.516;2024-01-15T02:39:53;99469.78;;;14.61
84354;BMP280;74538;43.522;1.516;2024-01-15T02:42:18;99473.66;;;14.60
84354;BMP280;74538;43.522;1.516;2024-01-15T02:44:44;99460.31;;;14.60
84354;BMP280;74538;43.522;1.516;2024-01-15T02:47:09;99447.00;;;14.60
84354;BMP280;74538;43.522;1.516;2024-01-15T02:49:34;99447.00;;;14.60
84354;BMP280;74538;43.522;1.516;2024-01-15T02:52:00;99451.59;;;14.60
84354;BMP280;74538;43.522;1.516;2024-01-15T02:54:25;99455.41;;;14.59
84354;BMP280;74538;43.522;1.516;2024-01-15T02:56:51;99456.91;;;14.60
84354;BMP280;74538;43.522;1.516;2024-01-15T02:59:16;99460.00;;;14.58
84354;BMP280;74538;43.522;1.516;2024-01-15T03:01:42;99465.34;;;14.58
84354;BMP280;74538;43.522;1.516;2024-01-15T03:04:07;99454.66;;;14.58
84354;BMP280;74538;43.522;1.516;2024-01-15T03:06:32;99444.75;;;14.59
84354;BMP280;74538;43.522;1.516;2024-01-15T03:08:58;99445.94;;;14.58
84354;BMP280;74538;43.522;1.516;2024-01-15T03:11:23;99449.34;;;14.58
84354;BMP280;74538;43.522;1.516;2024-01-15T03:13:48;99453.19;;;14.57
84354;BMP280;74538;43.522;1.516;2024-01-15T03:16:14;99452.44;;;14.57
84354;BMP280;74538;43.522;1.516;2024-01-15T03:18:39;99445.19;;;14.57
84354;BMP280;74538;43.522;1.516;2024-01-15T03:21:05;99447.09;;;14.57
84354;BMP280;74538;43.522;1.516;2024-01-15T03:23:31;99441.03;;;14.56
84354;BMP280;74538;43.522;1.516;2024-01-15T03:25:56;99439.50;;;14.55
84354;BMP280;74538;43.522;1.516;2024-01-15T03:28:22;99435.69;;;14.56
84354;BMP280;74538;43.522;1.516;2024-01-15T03:30:47;99433.03;;;14.56
84354;BMP280;74538;43.522;1.516;2024-01-15T03:33:13;99426.16;;;14.55
84354;BMP280;74538;43.522;1.516;2024-01-15T03:35:38;99420.09;;;14.55
84354;BMP280;74538;43.522;1.516;2024-01-15T03:38:04;99422.03;;;14.54
84354;BMP280;74538;43.522;1.516;2024-01-15T03:40:29;99416.72;;;14.54
84354;BMP280;74538;43.522;1.516;2024-01-15T03:42:54;99416.72;;;14.54
84354;BMP280;74538;43.522;1.516;2024-01-15T03:45:20;99417.88;;;14.53
84354;BMP280;74538;43.522;1.516;2024-01-15T03:47:45;99411.38;;;14.54
84354;BMP280;74538;43.522;1.516;2024-01-15T03:50:11;99403.81;;;14.53
84354;BMP280;74538;43.522;1.516;2024-01-15T03:52:36;99404.56;;;14.53
84354;BMP280;74538;43.522;1.516;2024-01-15T03:55:01;99395.81;;;14.53
84354;BMP280;74538;43.522;1.516;2024-01-15T03:57:27;99397.72;;;14.52
84354;BMP280;74538;43.522;1.516;2024-01-15T03:59:52;99397.72;;;14.52
84354;BMP280;74538;43.522;1.516;2024-01-15T04:02:18;99394.31;;;14.52
84354;BMP280;74538;43.522;1.516;2024-01-15T04:04:43;99390.91;;;14.51
84354;BMP280;74538;43.522;1.516;2024-01-15T04:07:09;99385.56;;;14.51
84354;BMP280;74538;43.522;1.516;2024-01-15T04:09:35;99380.66;;;14.50
84354;BMP280;74538;43.522;1.516;2024-01-15T04:12:00;99381.41;;;14.50
84354;BMP280;74538;43.522;1.516;2024-01-15T04:14:26;99384.06;;;14.50
84354;BMP280;74538;43.522;1.516;2024-01-15T04:16:51;99377.25;;;14.49
84354;BMP280;74538;43.522;1.516;2024-01-15T04:19:17;99371.94;;;14.49
84354;BMP280;74538;43.522;1.516;2024-01-15T04:21:42;99363.19;;;14.49
84354;BMP280;74538;43.522;1.516;2024-01-15T04:24:07;99371.19;;;14.49
84354;BMP280;74538;43.522;1.516;2024-01-15T04:26:33;99370.44;;;14.48
84354;BMP280;74538;43.522;1.516;2024-01-15T04:28:58;99370.44;;;14.48
84354;BMP280;74538;43.522;1.516;2024-01-15T04:31:24;99371.19;;;14.49
84354;BMP280;74538;43.522;1.516;2024-01-15T04:33:50;99359.03;;;14.48
84354;BMP280;74538;43.522;1.516;2024-01-15T04:36:16;99360.50;;;14.49
84354;BMP280;74538;43.522;1.516;2024-01-15T04:38:41;99355.59;;;14.47
84354;BMP280;74538;43.522;1.516;2024-01-15T04:41:13;99356.78;;;14.46
84354;BMP280;74538;43.522;1.516;2024-01-15T04:43:38;99348.78;;;14.46
84354;BMP280;74538;43.522;1.516;2024-01-15T04:46:06;99341.53;;;14.47
84354;BMP280;74538;43.522;1.516;2024-01-15T04:48:32;99336.97;;;14.47
84354;BMP280;74538;43.522;1.516;2024-01-15T04:50:57;99332.06;;;14.46
84354;BMP280;74538;43.522;1.516;2024-01-15T04:53:22;99333.97;;;14.45
84354;BMP280;74538;43.522;1.516;2024-01-15T04:55:48;99328.63;;;14.45
84354;BMP280;74538;43.522;1.516;2024-01-15T04:58:13;99327.16;;;14.44
84354;BMP280;74538;43.522;1.516;2024-01-15T05:00:38;99323.31;;;14.45
84354;BMP280;74538;43.522;1.516;2024-01-15T05:03:04;99324.81;;;14.46
84354;BMP280;74538;43.522;1.516;2024-01-15T05:05:30;99325.44;;;14.50
84354;BMP280;74538;43.522;1.516;2024-01-15T05:07:55;99327.56;;;14.55
84354;BMP280;74538;43.522;1.516;2024-01-15T05:10:20;99323.94;;;14.62
84354;BMP280;74538;43.522;1.516;2024-01-15T05:12:46;99320.66;;;14.70
84354;BMP280;74538;43.522;1.516;2024-01-15T05:15:11;99307.84;;;14.78
84354;BMP280;74538;43.522;1.516;2024-01-15T05:17:37;99314.03;;;14.88
84354;BMP280;74538;43.522;1.516;2024-01-15T05:20:02;99304.19;;;14.97
84354;BMP280;74538;43.522;1.516;2024-01-15T05:22:28;99305.03;;;15.07
84354;BMP280;74538;43.522;1.516;2024-01-15T05:24:54;99300.94;;;15.15
84354;BMP280;74538;43.522;1.516;2024-01-15T05:27:19;99307.88;;;15.25
84354;BMP280;74538;43.522;1.516;2024-01-15T05:29:44;99307.94;;;15.34
84354;BMP280;74538;43.522;1.516;2024-01-15T05:32:10;99302.66;;;15.44
84354;BMP280;74538;43.522;1.516;2024-01-15T05:34:35;99302.00;;;15.52
84354;BMP280;74538;43.522;1.516;2024-01-15T05:37:01;99289.13;;;15.60
84354;BMP280;74538;43.522;1.516;2024-01-15T05:39:26;99281.94;;;15.69
84354;BMP280;74538;43.522;1.516;2024-01-15T05:41:51;99289.28;;;15.78
84354;BMP280;74538;43.522;1.516;2024-01-15T05:44:17;99290.50;;;15.86
84354;BMP280;74538;43.522;1.516;2024-01-15T05:46:42;99288.63;;;15.96
84354;BMP280;74538;43.522;1.516;2024-01-15T05:49:08;99293.69;;;16.03
84354;BMP280;74538;43.522;1.516;2024-01-15T05:51:33;99291.53;;;16.10
84354;BMP280;74538;43.522;1.516;2024-01-15T05:53:59;99299.56;;;16.20
84354;BMP280;74538;43.522;1.516;2024-01-15T05:56:24;99300.81;;;16.28
84354;BMP280;74538;43.522;1.516;2024-01-15T05:58:50;99289.81;;;16.35
84354;BMP280;74538;43.522;1.516;2024-01-15T06:01:15;99292.22;;;16.42
84354;BMP280;74538;43.522;1.516;2024-01-15T06:03:41;99288.09;;;16.50
84354;BMP280;74538;43.522;1.516;2024-01-15T06:06:08;99293.16;;;16.57
84354;BMP280;74538;43.522;1.516;2024-01-15T06:08:33;99297.06;;;16.65
84354;BMP280;74538;43.522;1.516;2024-01-15T06:10:59;99294.84;;;16.73
84354;BMP280;74538;43.522;1.516;2024-01-15T06:13:24;99300.66;;;16.80
84354;BMP280;74538;43.522;1.516;2024-01-15T06:15:50;99299.59;;;16.87
84354;BMP280;74538;43.522;1.516;2024-01-15T06:18:16;99292.06;;;16.95
84354;BMP280;74538;43.522;1.516;2024-01-15T06:20:41;99286.38;;;17.02
84354;BMP280;74538;43.522;1.516;2024-01-15T06:23:07;99284.94;;;17.10
84354;BMP280;74538;43.522;1.516;2024-01-15T06:25:32;99287.28;;;17.17
84354;BMP280;74538;43.522;1.516;2024-01-15T06:27:57;99285.81;;;17.25
84354;BMP280;74538;43.522;1.516;2024-01-15T06:30:23;99290.84;;;17.32
84354;BMP280;74538;43.522;1.516;2024-01-15T06:32:48;99290.56;;;17.39
84354;BMP280;74538;43.522;1.516;2024-01-15T06:35:14;99290.25;;;17.46
84354;BMP280;74538;43.522;1.516;2024-01-15T06:37:39;99287.25;;;17.54
84354;BMP280;74538;43.522;1.516;2024-01-15T06:40:05;99272.84;;;17.60
84354;BMP280;74538;43.522;1.516;2024-01-15T06:42:31;99271.03;;;17.66
84354;BMP280;74538;43.522;1.516;2024-01-15T06:44:56;99284.09;;;17.73
84354;BMP280;74538;43.522;1.516;2024-01-15T06:47:22;99277.69;;;17.80
84354;BMP280;74538;43.522;1.516;2024-01-15T06:49:47;99271.25;;;17.86
84354;BMP280;74538;43.522;1.516;2024-01-15T06:52:12;99268.25;;;17.94
84354;BMP280;74538;43.522;1.516;2024-01-15T06:54:38;99271.06;;;17.99
84354;BMP280;74538;43.522;1.516;2024-01-15T06:57:03;99265.38;;;18.06
84354;BMP280;74538;43.522;1.516;2024-01-15T06:59:29;99273.09;;;18.13
84354;BMP280;74538;43.522;1.516;2024-01-15T07:01:54;99277.84;;;18.18
84354;BMP280;74538;43.522;1.516;2024-01-15T07:04:20;99269.47;;;18.26
84354;BMP280;74538;43.522;1.516;2024-01-15T07:06:46;99266.13;;;18.31
84354;BMP280;74538;43.522;1.516;2024-01-15T07:09:13;99257.03;;;18.37
84354;BMP280;74538;43.522;1.516;2024-01-15T07:11:38;99259.84;;;18.43
84354;BMP280;74538;43.522;1.516;2024-01-15T07:14:09;99252.94;;;18.51
84354;BMP280;74538;43.522;1.516;2024-01-15T07:16:34;99252.31;;;18.56
84354;BMP280;74538;43.522;1.516;2024-01-15T07:19:00;99258.47;;;18.62
84354;BMP280;74538;43.522;1.516;2024-01-15T07:21:25;99253.25;;;18.68
84354;BMP280;74538;43.522;1.516;2024-01-15T07:23:51;99252.16;;;18.74
84354;BMP280;74538;43.522;1.516;2024-01-15T07:26:16;99250.31;;;18.80
84354;BMP280;74538;43.522;1.516;2024-01-15T07:28:41;99256.53;;;18.86
84354;BMP280;74538;43.522;1.516;2024-01-15T07:31:08;99250.53;;;18.91
84354;BMP280;74538;43.522;1.516;2024-01-15T07:33:34;99253.31;;;18.97
84354;BMP280;74538;43.522;1.516;2024-01-15T07:35:59;99251.47;;;19.03
84354;BMP280;74538;43.522;1.516;2024-01-15T07:38:25;99252.78;;;19.08
84354;BMP280;74538;43.522;1.516;2024-01-15T07:40:50;99250.91;;;19.14
84354;BMP280;74538;43.522;1.516;2024-01-15T07:43:16;99251.03;;;19.19
84354;BMP280;74538;43.522;1.516;2024-01-15T07:45:41;99253.81;;;19.25
84354;BMP280;74538;43.522;1.516;2024-01-15T07:48:06;99259.72;;;19.29
84354;BMP280;74538;43.522;1.516;2024-01-15T07:50:32;99266.66;;;19.36
84354;BMP280;74538;43.522;1.516;2024-01-15T07:52:57;99259.91;;;19.40
84354;BMP280;74538;43.522;1.516;2024-01-15T07:55:23;99250.75;;;19.47
84354;BMP280;74538;43.522;1.516;2024-01-15T07:57:48;99255.75;;;19.54
84354;BMP280;74538;43.522;1.516;2024-01-15T08:00:14;99254.66;;;19.60
84354;BMP280;74538;43.522;1.516;2024-01-15T08:02:40;99264.97;;;19.67
84354;BMP280;74538;43.522;1.516;2024-01-15T08:05:06;99262.63;;;19.75
84354;BMP280;74538;43.522;1.516;2024-01-15T08:07:32;99266.16;;;19.81
84354;BMP280;74538;43.522;1.516;2024-01-15T08:09:58;99268.47;;;19.88
84354;BMP280;74538;43.522;1.516;2024-01-15T08:12:23;99263.19;;;19.94
84354;BMP280;74538;43.522;1.516;2024-01-15T08:14:48;99262.53;;;19.99
84354;BMP280;74538;43.522;1.516;2024-01-15T08:17:14;99272.88;;;20.06
84354;BMP280;74538;43.522;1.516;2024-01-15T08:19:41;99268.78;;;20.11
84354;BMP280;74538;43.522;1.516;2024-01-15T08:22:07;99272.28;;;20.17
84354;BMP280;74538;43.522;1.516;2024-01-15T08:24:32;99275.03;;;20.22
84354;BMP280;74538;43.522;1.516;2024-01-15T08:26:58;99287.81;;;20.27
84354;BMP280;74538;43.522;1.516;2024-01-15T08:29:23;99279.09;;;20.32
84354;BMP280;74538;43.522;1.516;2024-01-15T08:31:50;99287.25;;;20.38
84354;BMP280;74538;43.522;1.516;2024-01-15T08:34:15;99289.25;;;20.43
84354;BMP280;74538;43.522;1.516;2024-01-15T08:36:41;99287.38;;;20.49
84354;BMP280;74538;43.522;1.516;2024-01-15T08:39:06;99285.97;;;20.54
84354;BMP280;74538;43.522;1.516;2024-01-15T08:41:33;99281.88;;;20.58
84354;BMP280;74538;43.522;1.516;2024-01-15T08:43:58;99284.63;;;20.64
84354;BMP280;74538;43.522;1.516;2024-01-15T08:46:23;99282.47;;;20.68
84354;BMP280;74538;43.522;1.516;2024-01-15T08:48:49;99287.13;;;20.73
84354;BMP280;74538;43.522;1.516;2024-01-15T08:51:15;99292.59;;;20.78
84354;BMP280;74538;43.522;1.516;2024-01-15T08:53:40;99289.25;;;20.84
84354;BMP280;74538;43.522;1.516;2024-01-15T08:56:05;99293.97;;;20.89
84354;BMP280;74538;43.522;1.516;2024-01-15T08:58:31;99294.47;;;20.93
84354;BMP280;74538;43.522;1.516;2024-01-15T09:00:56;99283.00;;;20.98
84354;BMP280;74538;43.522;1.516;2024-01-15T09:03:22;99273.50;;;21.02
84354;BMP280;74538;43.522;1.516;2024-01-15T09:05:47;99282.84;;;21.07
84354;BMP280;74538;43.522;1.516;2024-01-15T09:08:15;99292.22;;;21.11
84354;BMP280;74538;43.522;1.516;2024-01-15T09:10:42;99292.72;;;21.15
84354;BMP280;74538;43.522;1.516;2024-01-15T09:13:07;99292.53;;;21.19
84354;BMP280;74538;43.522;1.516;2024-01-15T09:15:33;99293.78;;;21.24
84354;BMP280;74538;43.522;1.516;2024-01-15T09:17:59;99289.66;;;21.28
84354;BMP280;74538;43.522;1.516;2024-01-15T09:20:24;99292.13;;;21.32
84354;BMP280;74538;43.522;1.516;2024-01-15T09:22:51;99295.34;;;21.36
84354;BMP280;74538;43.522;1.516;2024-01-15T09:25:16;99302.00;;;21.40
84354;BMP280;74538;43.522;1.516;2024-01-15T09:27:42;99301.78;;;21.44
84354;BMP280;74538;43.522;1.516;2024-01-15T09:30:08;99298.41;;;21.49
84354;BMP280;74538;43.522;1.516;2024-01-15T09:32:33;99303.56;;;21.52
84354;BMP280;74538;43.522;1.516;2024-01-15T09:34:59;99304.84;;;21.57
84354;BMP280;74538;43.522;1.516;2024-01-15T09:37:24;99309.25;;;21.60
84354;BMP280;74538;43.522;1.516;2024-01-15T09:39:50;99309.81;;;21.64
84354;BMP280;74538;43.522;1.516;2024-01-15T09:42:16;99312.53;;;21.70
84354;BMP280;74538;43.522;1.516;2024-01-15T09:44:41;99318.94;;;21.72
84354;BMP280;74538;43.522;1.516;2024-01-15T09:47:07;99311.34;;;21.76
84354;BMP280;74538;43.522;1.516;2024-01-15T09:49:33;99309.19;;;21.80
84354;BMP280;74538;43.522;1.516;2024-01-15T09:51:59;99292.75;;;21.84
84354;BMP280;74538;43.522;1.516;2024-01-15T09:54:25;99289.84;;;21.87
84354;BMP280;74538;43.522;1.516;2024-01-15T09:56:51;99287.66;;;21.91
84354;BMP280;74538;43.522;1.516;2024-01-15T09:59:18;99280.09;;;21.96
84354;BMP280;74538;43.522;1.516;2024-01-15T10:01:47;99285.97;;;22.00
84354;BMP280;74538;43.522;1.516;2024-01-15T10:04:13;99294.59;;;22.04
84354;BMP280;74538;43.522;1.516;2024-01-15T10:06:43;99302.44;;;22.07
84354;BMP280;74538;43.522;1.516;2024-01-15T10:09:12;99307.63;;;22.11
84354;BMP280;74538;43.522;1.516;2024-01-15T10:11:41;99304.69;;;22.14
84354;BMP280;74538;43.522;1.516;2024-01-15T10:14:06;99303.25;;;22.19
84354;BMP280;74538;43.522;1.516;2024-01-15T10:16:32;99311.84;;;22.23
84354;BMP280;74538;43.522;1.516;2024-01-15T10:18:58;99308.94;;;22.26
84354;BMP280;74538;43.522;1.516;2024-01-15T10:21:24;99303.28;;;22.30
84354;BMP280;74538;43.522;1.516;2024-01-15T10:23:51;99307.72;;;22.33
84354;BMP280;74538;43.522;1.516;2024-01-15T10:26:17;99310.91;;;22.37
84354;BMP280;74538;43.522;1.516;2024-01-15T10:28:42;99307.06;;;22.44
84354;BMP280;74538;43.522;1.516;2024-01-15T10:31:09;99293.34;;;22.47
84354;BMP280;74538;43.522;1.516;2024-01-15T10:33:35;99304.84;;;22.53
84354;BMP280;74538;43.522;1.516;2024-01-15T10:36:00;99298.50;;;22.56
84354;BMP280;74538;43.522;1.516;2024-01-15T10:38:26;99293.56;;;22.60
84354;BMP280;74538;43.522;1.516;2024-01-15T10:40:55;99293.34;;;22.64
84354;BMP280;74538;43.522;1.516;2024-01-15T10:43:22;99286.47;;;22.68
84354;BMP280;74538;43.522;1.516;2024-01-15T10:45:49;99292.41;;;22.73
84354;BMP280;74538;43.522;1.516;2024-01-15T10:48:17;99283.31;;;22.76
84354;BMP280;74538;43.522;1.516;2024-01-15T10:50:43;99282.38;;;22.79
84354;BMP280;74538;43.522;1.516;2024-01-15T10:53:12;99266.63;;;22.83
84354;BMP280;74538;43.522;1.516;2024-01-15T10:55:39;99267.13;;;22.87
84354;BMP280;74538;43.522;1.516;2024-01-15T10:58:07;99273.00;;;22.91
84354;BMP280;74538;43.522;1.516;2024-01-15T11:00:37;99278.69;;;22.93
84354;BMP280;74538;43.522;1.516;2024-01-15T11:03:06;99268.38;;;22.97
84354;BMP280;74538;43.522;1.516;2024-01-15T11:05:39;99270.84;;;23.00
84354;BMP280;74538;43.522;1.516;2024-01-15T11:08:06;99263.72;;;23.03
84354;BMP280;74538;43.522;1.516;2024-01-15T11:10:50;99255.38;;;23.06
84354;BMP280;74538;43.522;1.516;2024-01-15T11:16:05;99259.53;;;23.13
84354;BMP280;74538;43.522;1.516;2024-01-15T11:18:34;99266.88;;;23.13
84354;BMP280;74538;43.522;1.516;2024-01-15T11:23:44;99255.13;;;23.10
84354;BMP280;74538;43.522;1.516;2024-01-15T11:26:43;99255.13;;;23.10
84354;BMP280;74538;43.522;1.516;2024-01-15T11:31:57;99240.63;;;23.02
84354;BMP280;74538;43.522;1.516;2024-01-15T11:34:49;99240.63;;;23.02
84354;BMP280;74538;43.522;1.516;2024-01-15T11:37:15;99227.84;;;22.97
84354;BMP280;74538;43.522;1.516;2024-01-15T11:39:44;99235.72;;;22.95
84354;BMP280;74538;43.522;1.516;2024-01-15T11:42:11;99228.59;;;22.92
84354;BMP280;74538;43.522;1.516;2024-01-15T11:44:37;99233.00;;;22.89
84354;BMP280;74538;43.522;1.516;2024-01-15T11:47:05;99229.31;;;22.87
84354;BMP280;74538;43.522;1.516;2024-01-15T11:52:17;99218.25;;;22.79
84354;BMP280;74538;43.522;1.516;2024-01-15T11:55:07;99222.94;;;22.79
84354;BMP280;74538;43.522;1.516;2024-01-15T12:00:11;99223.41;;;22.71
84354;BMP280;74538;43.522;1.516;2024-01-15T12:02:45;99210.88;;;22.68
84354;BMP280;74538;43.522;1.516;2024-01-15T12:05:12;99213.34;;;22.66
84354;BMP280;74538;43.522;1.516;2024-01-15T12:07:44;99221.19;;;22.64
84354;BMP280;74538;43.522;1.516;2024-01-15T12:10:11;99215.56;;;22.62
84354;BMP280;74538;43.522;1.516;2024-01-15T12:15:15;99206.22;;;22.58
84354;BMP280;74538;43.522;1.516;2024-01-15T12:17:41;99205.25;;;22.55
84354;BMP280;74538;43.522;1.516;2024-01-15T12:20:06;99196.88;;;22.53
84354;BMP280;74538;43.522;1.516;2024-01-15T12:22:32;99195.38;;;22.52
84354;BMP280;74538;43.522;1.516;2024-01-15T12:24:57;99193.94;;;22.51
84354;BMP280;74538;43.522;1.516;2024-01-15T12:27:23;99187.06;;;22.50
84354;BMP280;74538;43.522;1.516;2024-01-15T12:29:49;99178.72;;;22.48
84354;BMP280;74538;43.522;1.516;2024-01-15T12:32:14;99181.91;;;22.47
84354;BMP280;74538;43.522;1.516;2024-01-15T12:34:40;99178.94;;;22.45
84354;BMP280;74538;43.522;1.516;2024-01-15T12:37:07;99180.91;;;22.44
84354;BMP280;74538;43.522;1.516;2024-01-15T12:39:34;99182.13;;;22.43
84354;BMP280;74538;43.522;1.516;2024-01-15T12:42:00;99171.09;;;22.41
84354;BMP280;74538;43.522;1.516;2024-01-15T12:44:26;99176.25;;;22.39
84354;BMP280;74538;43.522;1.516;2024-01-15T12:46:52;99164.72;;;22.39
84354;BMP280;74538;43.522;1.516;2024-01-15T12:49:17;99159.03;;;22.37
84354;BMP280;74538;43.522;1.516;2024-01-15T12:51:43;99161.75;;;22.37
84354;BMP280;74538;43.522;1.516;2024-01-15T12:54:08;99159.56;;;22.35
84354;BMP280;74538;43.522;1.516;2024-01-15T12:56:33;99158.06;;;22.34
84354;BMP280;74538;43.522;1.516;2024-01-15T12:58:59;99156.59;;;22.33
84354;BMP280;74538;43.522;1.516;2024-01-15T13:01:25;99147.78;;;22.33
84354;BMP280;74538;43.522;1.516;2024-01-15T13:03:50;99155.16;;;22.32
84354;BMP280;74538;43.522;1.516;2024-01-15T13:06:16;99154.41;;;22.31
84354;BMP280;74538;43.522;1.516;2024-01-15T13:08:41;99157.56;;;22.30
84354;BMP280;74538;43.522;1.516;2024-01-15T13:11:07;99150.19;;;22.30
84354;BMP280;74538;43.522;1.516;2024-01-15T13:13:32;99156.81;;;22.29
84354;BMP280;74538;43.522;1.516;2024-01-15T13:15:59;99150.72;;;22.29
84354;BMP280;74538;43.522;1.516;2024-01-15T13:18:25;99143.84;;;22.28
84354;BMP280;74538;43.522;1.516;2024-01-15T13:20:51;99135.75;;;22.28
84354;BMP280;74538;43.522;1.516;2024-01-15T13:23:16;99146.53;;;22.28
84354;BMP280;74538;43.522;1.516;2024-01-15T13:25:42;99134.75;;;22.25
84354;BMP280;74538;43.522;1.516;2024-01-15T13:28:07;99142.63;;;22.23
84354;BMP280;74538;43.522;1.516;2024-01-15T13:30:33;99137.69;;;22.22
84354;BMP280;74538;43.522;1.516;2024-01-15T13:32:59;99136.72;;;22.19
84354;BMP280;74538;43.522;1.516;2024-01-15T13:35:29;99137.19;;;22.18
84354;BMP280;74538;43.522;1.516;2024-01-15T13:37:55;99141.59;;;22.15
84354;BMP280;74538;43.522;1.516;2024-01-15T13:40:20;99141.38;;;22.13
84354;BMP280;74538;43.522;1.516;2024-01-15T13:42:46;99131.06;;;22.12
84354;BMP280;74538;43.522;1.516;2024-01-15T13:45:12;99128.09;;;22.10
84354;BMP280;74538;43.522;1.516;2024-01-15T13:47:40;99133.22;;;22.08
84354;BMP280;74538;43.522;1.516;2024-01-15T13:50:08;99131.03;;;22.06
84354;BMP280;74538;43.522;1.516;2024-01-15T13:52:34;99134.22;;;22.05
84354;BMP280;74538;43.522;1.516;2024-01-15T13:55:00;99133.97;;;22.03
84354;BMP280;74538;43.522;1.516;2024-01-15T13:57:25;99146.00;;;22.02
84354;BMP280;74538;43.522;1.516;2024-01-15T13:59:51;99145.72;;;22.00
84354;BMP280;74538;43.522;1.516;2024-01-15T14:02:16;99138.84;;;21.99
84354;BMP280;74538;43.522;1.516;2024-01-15T14:04:42;99139.84;;;21.96
84354;BMP280;74538;43.522;1.516;2024-01-15T14:07:07;99140.31;;;21.94
84354;BMP280;74538;43.522;1.516;2024-01-15T14:09:33;99134.22;;;21.93
84354;BMP280;74538;43.522;1.516;2024-01-15T14:11:58;99135.41;;;21.92
84354;BMP280;74538;43.522;1.516;2024-01-15T14:14:24;99122.41;;;21.91
84354;BMP280;74538;43.522;1.516;2024-01-15T14:16:49;99131.00;;;21.89
84354;BMP280;74538;43.522;1.516;2024-01-15T14:19:15;99132.69;;;21.87
84354;BMP280;74538;43.522;1.516;2024-01-15T14:21:40;99142.75;;;21.86